sensor_id;sensor_type;location;lat;lon;timestamp;P1;durP1;ratioP1;P2;durP2;ratioP2
49183;SDS011;35021;49.214;12.270;2023-02-11T00:00:55;15.30;;;13.80;;
49183;SDS011;35021;49.214;12.270;2023-02-11T00:03:22;16.00;;;14.30;;
49183;SDS011;35021;49.214;12.270;2023-02-11T00:05:56;16.85;;;14.85;;
49183;SDS011;35021;49.214;12.270;2023-02-11T00:08:24;15.82;;;13.90;;
49183;SDS011;35021;49.214;12.270;2023-02-11T00:10:52;16.30;;;14.60;;
49183;SDS011;35021;49.214;12.270;2023-02-11T00:13:19;16.95;;;15.15;;
49183;SDS011;35021;49.214;12.270;2023-02-11T00:15:46;16.98;;;14.23;;
49183;SDS011;35021;49.214;12.270;2023-02-11T00:18:13;16.05;;;14.38;;
49183;SDS011;35021;49.214;12.270;2023-02-11T00:20:40;15.70;;;14.07;;
49183;SDS011;35021;49.214;12.270;2023-02-11T00:23:07;16.40;;;14.65;;
49183;SDS011;35021;49.214;12.270;2023-02-11T00:25:39;15.60;;;14.02;;
49183;SDS011;35021;49.214;12.270;2023-02-11T00:28:07;15.65;;;14.05;;
49183;SDS011;35021;49.214;12.270;2023-02-11T00:30:34;15.18;;;13.60;;
49183;SDS011;35021;49.214;12.270;2023-02-11T00:33:02;16.10;;;14.50;;
49183;SDS011;35021;49.214;12.270;2023-02-11T00:35:29;16.13;;;14.43;;
49183;SDS011;35021;49.214;12.270;2023-02-11T00:37:56;16.45;;;14.30;;
49183;SDS011;35021;49.214;12.270;2023-02-11T00:40:23;16.38;;;14.68;;
49183;SDS011;35021;49.214;12.270;2023-02-11T00:42:50;16.73;;;14.93;;
49183;SDS011;35021;49.214;12.270;2023-02-11T00:45:16;17.65;;;14.90;;
49183;SDS011;35021;49.214;12.270;2023-02-11T00:47:46;16.30;;;14.00;;
49183;SDS011;35021;49.214;12.270;2023-02-11T00:50:13;16.30;;;14.43;;
49183;SDS011;35021;49.214;12.270;2023-02-11T00:52:40;16.52;;;14.77;;
49183;SDS011;35021;49.214;12.270;2023-02-11T00:55:07;15.65;;;14.07;;
49183;SDS011;35021;49.214;12.270;2023-02-11T00:57:34;15.63;;;14.02;;
49183;SDS011;35021;49.214;12.270;2023-02-11T01:00:01;16.98;;;15.18;;
49183;SDS011;35021;49.214;12.270;2023-02-11T01:02:31;16.52;;;14.77;;
49183;SDS011;35021;49.214;12.270;2023-02-11T01:04:58;16.83;;;15.02;;
49183;SDS011;35021;49.214;12.270;2023-02-11T01:07:26;16.08;;;14.23;;
49183;SDS011;35021;49.214;12.270;2023-02-11T01:09:53;16.17;;;14.48;;
49183;SDS011;35021;49.214;12.270;2023-02-11T01:12:21;16.67;;;14.90;;
49183;SDS011;35021;49.214;12.270;2023-02-11T01:14:48;17.30;;;15.15;;
49183;SDS011;35021;49.214;12.270;2023-02-11T01:17:15;15.82;;;14.15;;
49183;SDS011;35021;49.214;12.270;2023-02-11T01:19:41;17.30;;;15.05;;
49183;SDS011;35021;49.214;12.270;2023-02-11T01:22:08;16.88;;;15.07;;
49183;SDS011;35021;49.214;12.270;2023-02-11T01:24:35;16.00;;;14.40;;
49183;SDS011;35021;49.214;12.270;2023-02-11T01:27:02;16.15;;;14.45;;
49183;SDS011;35021;49.214;12.270;2023-02-11T01:29:29;15.93;;;14.32;;
49183;SDS011;35021;49.214;12.270;2023-02-11T01:31:56;17.20;;;14.45;;
49183;SDS011;35021;49.214;12.270;2023-02-11T01:34:23;18.00;;;15.20;;
49183;SDS011;35021;49.214;12.270;2023-02-11T01:36:50;16.48;;;14.77;;
49183;SDS011;35021;49.214;12.270;2023-02-11T01:39:16;16.88;;;14.70;;
49183;SDS011;35021;49.214;12.270;2023-02-11T01:41:43;17.23;;;15.52;;
49183;SDS011;35021;49.214;12.270;2023-02-11T01:44:23;18.35;;;15.65;;
49183;SDS011;35021;49.214;12.270;2023-02-11T01:46:53;17.20;;;15.40;;
49183;SDS011;35021;49.214;12.270;2023-02-11T01:49:27;16.70;;;14.90;;
49183;SDS011;35021;49.214;12.270;2023-02-11T01:51:58;19.05;;;16.35;;
49183;SDS011;35021;49.214;12.270;2023-02-11T01:54:37;18.58;;;15.82;;
49183;SDS011;35021;49.214;12.270;2023-02-11T01:57:26;18.52;;;16.23;;
49183;SDS011;35021;49.214;12.270;2023-02-11T02:02:23;17.10;;;15.32;;
49183;SDS011;35021;49.214;12.270;2023-02-11T02:05:04;17.35;;;15.55;;
49183;SDS011;35021;49.214;12.270;2023-02-11T02:07:51;16.92;;;15.00;;
49183;SDS011;35021;49.214;12.270;2023-02-11T02:10:29;17.80;;;15.77;;
49183;SDS011;35021;49.214;12.270;2023-02-11T02:12:57;18.88;;;15.65;;
49183;SDS011;35021;49.214;12.270;2023-02-11T02:26:04;18.10;;;16.13;;
49183;SDS011;35021;49.214;12.270;2023-02-11T02:34:36;17.95;;;16.05;;
49183;SDS011;35021;49.214;12.270;2023-02-11T02:39:57;18.63;;;15.77;;
49183;SDS011;35021;49.214;12.270;2023-02-11T02:42:27;20.45;;;17.35;;
49183;SDS011;35021;49.214;12.270;2023-02-11T02:44:54;18.88;;;16.88;;
49183;SDS011;35021;49.214;12.270;2023-02-11T02:47:21;19.23;;;16.90;;
49183;SDS011;35021;49.214;12.270;2023-02-11T02:49:48;19.08;;;16.85;;
49183;SDS011;35021;49.214;12.270;2023-02-11T02:52:34;18.63;;;16.50;;
49183;SDS011;35021;49.214;12.270;2023-02-11T02:55:21;17.52;;;15.73;;
49183;SDS011;35021;49.214;12.270;2023-02-11T03:03:49;19.00;;;16.23;;
49183;SDS011;35021;49.214;12.270;2023-02-11T03:06:30;18.42;;;16.42;;
49183;SDS011;35021;49.214;12.270;2023-02-11T03:09:13;17.90;;;15.63;;
49183;SDS011;35021;49.214;12.270;2023-02-11T03:11:59;18.02;;;16.13;;
49183;SDS011;35021;49.214;12.270;2023-02-11T03:14:28;17.77;;;15.60;;
49183;SDS011;35021;49.214;12.270;2023-02-11T03:16:57;19.63;;;15.77;;
49183;SDS011;35021;49.214;12.270;2023-02-11T03:19:34;17.50;;;15.80;;
49183;SDS011;35021;49.214;12.270;2023-02-11T03:22:06;18.20;;;16.05;;
49183;SDS011;35021;49.214;12.270;2023-02-11T03:24:47;17.70;;;15.52;;
49183;SDS011;35021;49.214;12.270;2023-02-11T03:27:16;20.38;;;18.08;;
49183;SDS011;35021;49.214;12.270;2023-02-11T03:29:54;17.90;;;16.00;;
49183;SDS011;35021;49.214;12.270;2023-02-11T03:34:59;19.52;;;17.42;;
49183;SDS011;35021;49.214;12.270;2023-02-11T03:37:34;18.23;;;16.25;;
49183;SDS011;35021;49.214;12.270;2023-02-11T03:40:08;18.05;;;16.20;;
49183;SDS011;35021;49.214;12.270;2023-02-11T03:42:43;20.17;;;16.60;;
49183;SDS011;35021;49.214;12.270;2023-02-11T03:45:23;19.25;;;17.25;;
49183;SDS011;35021;49.214;12.270;2023-02-11T03:50:54;19.13;;;16.83;;
49183;SDS011;35021;49.214;12.270;2023-02-11T03:53:23;18.52;;;16.42;;
49183;SDS011;35021;49.214;12.270;2023-02-11T03:55:50;18.58;;;16.20;;
49183;SDS011;35021;49.214;12.270;2023-02-11T03:58:19;18.05;;;16.15;;
49183;SDS011;35021;49.214;12.270;2023-02-11T04:00:47;17.00;;;15.30;;
49183;SDS011;35021;49.214;12.270;2023-02-11T04:03:13;17.77;;;15.35;;
49183;SDS011;35021;49.214;12.270;2023-02-11T04:05:40;16.10;;;14.25;;
49183;SDS011;35021;49.214;12.270;2023-02-11T04:08:07;16.83;;;15.02;;
49183;SDS011;35021;49.214;12.270;2023-02-11T04:10:34;17.55;;;15.45;;
49183;SDS011;35021;49.214;12.270;2023-02-11T04:13:01;17.08;;;15.27;;
49183;SDS011;35021;49.214;12.270;2023-02-11T04:15:28;20.17;;;15.85;;
49183;SDS011;35021;49.214;12.270;2023-02-11T04:17:55;18.45;;;16.55;;
49183;SDS011;35021;49.214;12.270;2023-02-11T04:20:21;18.02;;;15.38;;
49183;SDS011;35021;49.214;12.270;2023-02-11T04:22:48;17.00;;;15.02;;
49183;SDS011;35021;49.214;12.270;2023-02-11T04:25:15;17.35;;;15.55;;
49183;SDS011;35021;49.214;12.270;2023-02-11T04:27:42;18.63;;;16.65;;
49183;SDS011;35021;49.214;12.270;2023-02-11T04:30:09;17.55;;;15.70;;
49183;SDS011;35021;49.214;12.270;2023-02-11T04:32:36;17.52;;;15.73;;
49183;SDS011;35021;49.214;12.270;2023-02-11T04:35:03;18.13;;;16.35;;
49183;SDS011;35021;49.214;12.270;2023-02-11T04:37:31;18.30;;;16.40;;
49183;SDS011;35021;49.214;12.270;2023-02-11T04:39:58;18.02;;;16.23;;
49183;SDS011;35021;49.214;12.270;2023-02-11T04:42:24;19.08;;;15.98;;
49183;SDS011;35021;49.214;12.270;2023-02-11T04:44:51;17.95;;;16.05;;
49183;SDS011;35021;49.214;12.270;2023-02-11T04:47:18;18.00;;;16.10;;
49183;SDS011;35021;49.214;12.270;2023-02-11T04:49:45;17.85;;;15.95;;
49183;SDS011;35021;49.214;12.270;2023-02-11T04:52:12;18.98;;;16.75;;
49183;SDS011;35021;49.214;12.270;2023-02-11T04:54:38;18.20;;;16.33;;
49183;SDS011;35021;49.214;12.270;2023-02-11T04:57:05;19.48;;;17.13;;
49183;SDS011;35021;49.214;12.270;2023-02-11T04:59:32;18.48;;;16.58;;
49183;SDS011;35021;49.214;12.270;2023-02-11T05:01:59;17.98;;;16.17;;
49183;SDS011;35021;49.214;12.270;2023-02-11T05:04:26;19.63;;;17.15;;
49183;SDS011;35021;49.214;12.270;2023-02-11T05:06:53;19.58;;;16.10;;
49183;SDS011;35021;49.214;12.270;2023-02-11T05:09:22;20.38;;;17.92;;
49183;SDS011;35021;49.214;12.270;2023-02-11T05:11:49;18.13;;;16.23;;
49183;SDS011;35021;49.214;12.270;2023-02-11T05:14:15;17.60;;;15.80;;
49183;SDS011;35021;49.214;12.270;2023-02-11T05:16:42;17.30;;;15.43;;
49183;SDS011;35021;49.214;12.270;2023-02-11T05:19:09;17.90;;;16.10;;
49183;SDS011;35021;49.214;12.270;2023-02-11T05:21:36;18.83;;;16.92;;
49183;SDS011;35021;49.214;12.270;2023-02-11T05:24:03;18.92;;;16.95;;
49183;SDS011;35021;49.214;12.270;2023-02-11T05:26:30;17.73;;;15.82;;
49183;SDS011;35021;49.214;12.270;2023-02-11T05:28:58;16.85;;;15.15;;
49183;SDS011;35021;49.214;12.270;2023-02-11T05:31:24;17.83;;;15.93;;
49183;SDS011;35021;49.214;12.270;2023-02-11T05:33:51;18.42;;;16.52;;
49183;SDS011;35021;49.214;12.270;2023-02-11T05:36:18;17.83;;;15.98;;
49183;SDS011;35021;49.214;12.270;2023-02-11T05:38:45;18.02;;;16.13;;
49183;SDS011;35021;49.214;12.270;2023-02-11T05:41:12;16.90;;;15.20;;
49183;SDS011;35021;49.214;12.270;2023-02-11T05:43:38;18.35;;;15.70;;
49183;SDS011;35021;49.214;12.270;2023-02-11T05:46:05;16.33;;;14.63;;
49183;SDS011;35021;49.214;12.270;2023-02-11T05:48:32;18.20;;;15.57;;
49183;SDS011;35021;49.214;12.270;2023-02-11T05:50:59;16.83;;;15.13;;
49183;SDS011;35021;49.214;12.270;2023-02-11T05:53:26;17.33;;;15.57;;
49183;SDS011;35021;49.214;12.270;2023-02-11T05:55:53;17.65;;;15.48;;
49183;SDS011;35021;49.214;12.270;2023-02-11T05:58:20;17.65;;;15.85;;
49183;SDS011;35021;49.214;12.270;2023-02-11T06:00:46;16.83;;;15.02;;
49183;SDS011;35021;49.214;12.270;2023-02-11T06:03:13;18.08;;;16.17;;
49183;SDS011;35021;49.214;12.270;2023-02-11T06:05:41;17.15;;;15.45;;
49183;SDS011;35021;49.214;12.270;2023-02-11T06:08:09;16.80;;;15.07;;
49183;SDS011;35021;49.214;12.270;2023-02-11T06:10:36;17.55;;;15.65;;
49183;SDS011;35021;49.214;12.270;2023-02-11T06:13:03;16.73;;;14.98;;
49183;SDS011;35021;49.214;12.270;2023-02-11T06:15:29;16.48;;;14.85;;
49183;SDS011;35021;49.214;12.270;2023-02-11T06:17:56;17.55;;;15.65;;
49183;SDS011;35021;49.214;12.270;2023-02-11T06:20:23;18.00;;;16.20;;
49183;SDS011;35021;49.214;12.270;2023-02-11T06:22:50;17.20;;;15.40;;
49183;SDS011;35021;49.214;12.270;2023-02-11T06:25:16;17.67;;;15.77;;
49183;SDS011;35021;49.214;12.270;2023-02-11T06:27:43;16.00;;;14.30;;
49183;SDS011;35021;49.214;12.270;2023-02-11T06:30:10;16.42;;;14.75;;
49183;SDS011;35021;49.214;12.270;2023-02-11T06:32:38;17.42;;;15.63;;
49183;SDS011;35021;49.214;12.270;2023-02-11T06:35:10;17.73;;;15.93;;
49183;SDS011;35021;49.214;12.270;2023-02-11T06:37:38;17.20;;;15.40;;
49183;SDS011;35021;49.214;12.270;2023-02-11T06:40:06;17.35;;;15.65;;
49183;SDS011;35021;49.214;12.270;2023-02-11T06:42:34;17.73;;;15.98;;
49183;SDS011;35021;49.214;12.270;2023-02-11T06:45:01;17.80;;;16.00;;
49183;SDS011;35021;49.214;12.270;2023-02-11T06:47:31;17.00;;;15.32;;
49183;SDS011;35021;49.214;12.270;2023-02-11T06:49:58;17.90;;;16.17;;
49183;SDS011;35021;49.214;12.270;2023-02-11T06:52:25;17.67;;;15.88;;
49183;SDS011;35021;49.214;12.270;2023-02-11T06:54:52;16.95;;;15.20;;
49183;SDS011;35021;49.214;12.270;2023-02-11T06:57:19;17.85;;;16.15;;
49183;SDS011;35021;49.214;12.270;2023-02-11T06:59:45;17.73;;;15.50;;
49183;SDS011;35021;49.214;12.270;2023-02-11T07:02:12;16.63;;;15.00;;
49183;SDS011;35021;49.214;12.270;2023-02-11T07:04:39;17.15;;;15.45;;
49183;SDS011;35021;49.214;12.270;2023-02-11T07:07:06;16.40;;;14.70;;
49183;SDS011;35021;49.214;12.270;2023-02-11T07:09:33;16.15;;;14.55;;
49183;SDS011;35021;49.214;12.270;2023-02-11T07:12:00;17.20;;;15.48;;
49183;SDS011;35021;49.214;12.270;2023-02-11T07:14:27;15.95;;;14.35;;
49183;SDS011;35021;49.214;12.270;2023-02-11T07:16:54;16.83;;;15.07;;
49183;SDS011;35021;49.214;12.270;2023-02-11T07:19:21;17.35;;;15.65;;
49183;SDS011;35021;49.214;12.270;2023-02-11T07:21:47;17.77;;;15.93;;
49183;SDS011;35021;49.214;12.270;2023-02-11T07:24:14;17.25;;;15.55;;
49183;SDS011;35021;49.214;12.270;2023-02-11T07:26:41;16.38;;;14.77;;
49183;SDS011;35021;49.214;12.270;2023-02-11T07:29:08;16.63;;;14.93;;
49183;SDS011;35021;49.214;12.270;2023-02-11T07:31:35;16.30;;;14.75;;
49183;SDS011;35021;49.214;12.270;2023-02-11T07:34:02;16.05;;;14.30;;
49183;SDS011;35021;49.214;12.270;2023-02-11T07:36:29;16.15;;;14.55;;
49183;SDS011;35021;49.214;12.270;2023-02-11T07:38:57;16.48;;;14.77;;
49183;SDS011;35021;49.214;12.270;2023-02-11T07:41:25;16.17;;;14.48;;
49183;SDS011;35021;49.214;12.270;2023-02-11T07:43:53;15.07;;;13.55;;
49183;SDS011;35021;49.214;12.270;2023-02-11T07:46:25;15.65;;;14.05;;
49183;SDS011;35021;49.214;12.270;2023-02-11T07:48:53;15.98;;;14.32;;
49183;SDS011;35021;49.214;12.270;2023-02-11T07:51:22;15.52;;;14.02;;
49183;SDS011;35021;49.214;12.270;2023-02-11T07:53:56;16.17;;;14.43;;
49183;SDS011;35021;49.214;12.270;2023-02-11T07:56:24;17.73;;;15.05;;
49183;SDS011;35021;49.214;12.270;2023-02-11T07:58:52;16.92;;;14.98;;
49183;SDS011;35021;49.214;12.270;2023-02-11T08:01:21;16.13;;;13.77;;
49183;SDS011;35021;49.214;12.270;2023-02-11T08:03:51;16.23;;;14.35;;
49183;SDS011;35021;49.214;12.270;2023-02-11T08:06:19;15.77;;;14.18;;
49183;SDS011;35021;49.214;12.270;2023-02-11T08:08:47;16.63;;;14.75;;
49183;SDS011;35021;49.214;12.270;2023-02-11T08:11:15;15.75;;;14.20;;
49183;SDS011;35021;49.214;12.270;2023-02-11T08:13:53;15.30;;;13.77;;
49183;SDS011;35021;49.214;12.270;2023-02-11T08:18:50;15.45;;;13.85;;
49183;SDS011;35021;49.214;12.270;2023-02-11T08:21:17;17.38;;;14.70;;
49183;SDS011;35021;49.214;12.270;2023-02-11T08:23:45;15.88;;;14.23;;
49183;SDS011;35021;49.214;12.270;2023-02-11T08:26:13;14.82;;;13.32;;
49183;SDS011;35021;49.214;12.270;2023-02-11T08:28:43;15.77;;;14.07;;
49183;SDS011;35021;49.214;12.270;2023-02-11T08:31:15;16.88;;;14.63;;
49183;SDS011;35021;49.214;12.270;2023-02-11T08:33:44;15.93;;;14.23;;
49183;SDS011;35021;49.214;12.270;2023-02-11T08:36:12;15.63;;;14.02;;
49183;SDS011;35021;49.214;12.270;2023-02-11T08:38:40;15.23;;;13.63;;
49183;SDS011;35021;49.214;12.270;2023-02-11T08:41:08;16.88;;;14.80;;
49183;SDS011;35021;49.214;12.270;2023-02-11T08:43:35;16.50;;;14.80;;
49183;SDS011;35021;49.214;12.270;2023-02-11T08:46:07;15.90;;;14.20;;
49183;SDS011;35021;49.214;12.270;2023-02-11T08:48:36;16.30;;;14.68;;
49183;SDS011;35021;49.214;12.270;2023-02-11T08:51:06;15.68;;;14.07;;
49183;SDS011;35021;49.214;12.270;2023-02-11T08:53:35;15.70;;;14.20;;
49183;SDS011;35021;49.214;12.270;2023-02-11T08:56:02;15.35;;;13.75;;
49183;SDS011;35021;49.214;12.270;2023-02-11T08:58:29;15.15;;;13.65;;
49183;SDS011;35021;49.214;12.270;2023-02-11T09:00:56;15.25;;;13.75;;
49183;SDS011;35021;49.214;12.270;2023-02-11T09:03:23;16.33;;;14.60;;
49183;SDS011;35021;49.214;12.270;2023-02-11T09:05:50;16.75;;;15.05;;
49183;SDS011;35021;49.214;12.270;2023-02-11T09:08:19;16.73;;;15.02;;
49183;SDS011;35021;49.214;12.270;2023-02-11T09:10:46;16.17;;;14.48;;
49183;SDS011;35021;49.214;12.270;2023-02-11T09:13:14;16.00;;;14.30;;
49183;SDS011;35021;49.214;12.270;2023-02-11T09:15:45;17.17;;;14.68;;
49183;SDS011;35021;49.214;12.270;2023-02-11T09:18:12;16.92;;;14.57;;
49183;SDS011;35021;49.214;12.270;2023-02-11T09:20:39;15.23;;;13.70;;
49183;SDS011;35021;49.214;12.270;2023-02-11T09:23:06;16.33;;;14.68;;
49183;SDS011;35021;49.214;12.270;2023-02-11T09:25:32;15.88;;;14.18;;
49183;SDS011;35021;49.214;12.270;2023-02-11T09:27:59;16.77;;;14.68;;
49183;SDS011;35021;49.214;12.270;2023-02-11T09:30:26;16.80;;;15.10;;
49183;SDS011;35021;49.214;12.270;2023-02-11T09:32:53;15.10;;;13.50;;
49183;SDS011;35021;49.214;12.270;2023-02-11T09:35:20;15.07;;;13.48;;
49183;SDS011;35021;49.214;12.270;2023-02-11T09:37:47;15.55;;;13.65;;
49183;SDS011;35021;49.214;12.270;2023-02-11T09:40:14;15.20;;;13.75;;
49183;SDS011;35021;49.214;12.270;2023-02-11T09:42:45;15.07;;;13.48;;
49183;SDS011;35021;49.214;12.270;2023-02-11T09:45:28;16.08;;;14.32;;
49183;SDS011;35021;49.214;12.270;2023-02-11T09:47:58;15.60;;;14.00;;
49183;SDS011;35021;49.214;12.270;2023-02-11T09:50:28;14.60;;;13.18;;
49183;SDS011;35021;49.214;12.270;2023-02-11T09:53:09;14.70;;;13.20;;
49183;SDS011;35021;49.214;12.270;2023-02-11T09:55:42;15.35;;;13.73;;
49183;SDS011;35021;49.214;12.270;2023-02-11T09:58:13;15.77;;;14.05;;
49183;SDS011;35021;49.214;12.270;2023-02-11T10:00:47;14.15;;;12.68;;
49183;SDS011;35021;49.214;12.270;2023-02-11T10:09:00;14.38;;;12.93;;
49183;SDS011;35021;49.214;12.270;2023-02-11T10:22:46;16.50;;;14.38;;
49183;SDS011;35021;49.214;12.270;2023-02-11T10:27:50;14.68;;;12.85;;
49183;SDS011;35021;49.214;12.270;2023-02-11T10:30:36;14.82;;;13.32;;
49183;SDS011;35021;49.214;12.270;2023-02-11T10:35:59;14.55;;;13.02;;
49183;SDS011;35021;49.214;12.270;2023-02-11T10:38:26;14.80;;;13.20;;
49183;SDS011;35021;49.214;12.270;2023-02-11T10:40:53;15.52;;;13.38;;
49183;SDS011;35021;49.214;12.270;2023-02-11T10:43:21;14.27;;;12.77;;
49183;SDS011;35021;49.214;12.270;2023-02-11T10:45:52;14.43;;;13.02;;
49183;SDS011;35021;49.214;12.270;2023-02-11T10:48:37;14.10;;;12.60;;
49183;SDS011;35021;49.214;12.270;2023-02-11T10:53:41;13.60;;;12.20;;
49183;SDS011;35021;49.214;12.270;2023-02-11T10:56:10;12.88;;;11.57;;
49183;SDS011;35021;49.214;12.270;2023-02-11T10:58:52;14.65;;;12.75;;
49183;SDS011;35021;49.214;12.270;2023-02-11T11:01:21;12.85;;;11.13;;
49183;SDS011;35021;49.214;12.270;2023-02-11T11:03:51;13.77;;;11.63;;
49183;SDS011;35021;49.214;12.270;2023-02-11T11:06:28;12.65;;;11.35;;
49183;SDS011;35021;49.214;12.270;2023-02-11T11:08:57;13.32;;;12.00;;
49183;SDS011;35021;49.214;12.270;2023-02-11T11:11:24;12.93;;;11.63;;
49183;SDS011;35021;49.214;12.270;2023-02-11T11:16:28;13.00;;;11.48;;
49183;SDS011;35021;49.214;12.270;2023-02-11T11:29:18;12.73;;;11.40;;
49183;SDS011;35021;49.214;12.270;2023-02-11T11:32:04;13.93;;;11.95;;
49183;SDS011;35021;49.214;12.270;2023-02-11T11:34:42;13.48;;;12.07;;
49183;SDS011;35021;49.214;12.270;2023-02-11T11:37:27;13.80;;;12.40;;
49183;SDS011;35021;49.214;12.270;2023-02-11T11:40:19;13.52;;;12.15;;
49183;SDS011;35021;49.214;12.270;2023-02-11T11:45:37;13.13;;;11.40;;
49183;SDS011;35021;49.214;12.270;2023-02-11T11:48:07;14.15;;;12.68;;
49183;SDS011;35021;49.214;12.270;2023-02-11T11:56:04;12.30;;;11.00;;
49183;SDS011;35021;49.214;12.270;2023-02-11T11:58:38;12.48;;;11.13;;
49183;SDS011;35021;49.214;12.270;2023-02-11T12:01:19;11.05;;;9.63;;
49183;SDS011;35021;49.214;12.270;2023-02-11T12:12:16;17.23;;;14.52;;
49183;SDS011;35021;49.214;12.270;2023-02-11T12:26:28;11.93;;;10.80;;
49183;SDS011;35021;49.214;12.270;2023-02-11T12:29:22;11.65;;;10.55;;
49183;SDS011;35021;49.214;12.270;2023-02-11T12:34:50;11.43;;;10.20;;
49183;SDS011;35021;49.214;12.270;2023-02-11T12:38:24;11.80;;;9.75;;
49183;SDS011;35021;49.214;12.270;2023-02-11T12:43:20;11.10;;;10.00;;
49183;SDS011;35021;49.214;12.270;2023-02-11T12:51:50;10.50;;;9.07;;
49183;SDS011;35021;49.214;12.270;2023-02-11T12:57:27;9.63;;;8.70;;
49183;SDS011;35021;49.214;12.270;2023-02-11T13:00:14;9.45;;;8.55;;
49183;SDS011;35021;49.214;12.270;2023-02-11T13:07:52;10.63;;;8.73;;
49183;SDS011;35021;49.214;12.270;2023-02-11T13:10:37;10.43;;;9.32;;
49183;SDS011;35021;49.214;12.270;2023-02-11T13:16:27;9.98;;;8.93;;
49183;SDS011;35021;49.214;12.270;2023-02-11T13:24:58;13.40;;;10.40;;
49183;SDS011;35021;49.214;12.270;2023-02-11T13:27:43;12.85;;;10.00;;
49183;SDS011;35021;49.214;12.270;2023-02-11T13:37:59;11.48;;;10.13;;
49183;SDS011;35021;49.214;12.270;2023-02-11T13:40:42;11.82;;;10.57;;
49183;SDS011;35021;49.214;12.270;2023-02-11T13:43:22;11.95;;;10.80;;
49183;SDS011;35021;49.214;12.270;2023-02-11T13:46:01;12.38;;;10.95;;
49183;SDS011;35021;49.214;12.270;2023-02-11T13:48:31;11.45;;;10.25;;
49183;SDS011;35021;49.214;12.270;2023-02-11T13:51:08;12.60;;;10.95;;
49183;SDS011;35021;49.214;12.270;2023-02-11T13:54:17;10.65;;;9.65;;
49183;SDS011;35021;49.214;12.270;2023-02-11T13:56:34;12.50;;;11.20;;
49183;SDS011;35021;49.214;12.270;2023-02-11T13:59:50;11.93;;;10.73;;
49183;SDS011;35021;49.214;12.270;2023-02-11T14:10:54;12.38;;;11.18;;
49183;SDS011;35021;49.214;12.270;2023-02-11T14:16:15;11.98;;;10.73;;
49183;SDS011;35021;49.214;12.270;2023-02-11T14:19:01;12.57;;;10.75;;
49183;SDS011;35021;49.214;12.270;2023-02-11T14:21:35;13.77;;;11.27;;
49183;SDS011;35021;49.214;12.270;2023-02-11T14:32:04;12.10;;;10.90;;
49183;SDS011;35021;49.214;12.270;2023-02-11T14:34:52;11.85;;;10.55;;
49183;SDS011;35021;49.214;12.270;2023-02-11T14:43:06;13.65;;;11.48;;
49183;SDS011;35021;49.214;12.270;2023-02-11T14:45:44;12.93;;;11.55;;
49183;SDS011;35021;49.214;12.270;2023-02-11T14:48:16;14.95;;;13.45;;
49183;SDS011;35021;49.214;12.270;2023-02-11T14:50:48;13.82;;;12.35;;
49183;SDS011;35021;49.214;12.270;2023-02-11T14:53:46;14.82;;;12.30;;
49183;SDS011;35021;49.214;12.270;2023-02-11T14:56:17;14.70;;;11.77;;
49183;SDS011;35021;49.214;12.270;2023-02-11T14:58:49;16.10;;;12.43;;
49183;SDS011;35021;49.214;12.270;2023-02-11T15:01:24;15.00;;;12.35;;
49183;SDS011;35021;49.214;12.270;2023-02-11T15:04:03;15.93;;;13.23;;
49183;SDS011;35021;49.214;12.270;2023-02-11T15:06:40;14.35;;;11.63;;
49183;SDS011;35021;49.214;12.270;2023-02-11T15:09:21;12.65;;;11.02;;
49183;SDS011;35021;49.214;12.270;2023-02-11T15:11:54;13.60;;;12.20;;
49183;SDS011;35021;49.214;12.270;2023-02-11T15:14:23;13.40;;;11.10;;
49183;SDS011;35021;49.214;12.270;2023-02-11T15:16:53;14.23;;;10.70;;
49183;SDS011;35021;49.214;12.270;2023-02-11T15:19:35;12.77;;;11.40;;
49183;SDS011;35021;49.214;12.270;2023-02-11T15:22:07;14.23;;;11.70;;
49183;SDS011;35021;49.214;12.270;2023-02-11T15:24:59;12.50;;;11.15;;
49183;SDS011;35021;49.214;12.270;2023-02-11T15:27:40;15.57;;;11.82;;
49183;SDS011;35021;49.214;12.270;2023-02-11T15:32:48;12.82;;;11.43;;
49183;SDS011;35021;49.214;12.270;2023-02-11T15:35:32;13.27;;;11.55;;
49183;SDS011;35021;49.214;12.270;2023-02-11T15:38:02;12.77;;;11.23;;
49183;SDS011;35021;49.214;12.270;2023-02-11T15:40:31;13.70;;;11.57;;
49183;SDS011;35021;49.214;12.270;2023-02-11T15:43:06;14.85;;;12.05;;
49183;SDS011;35021;49.214;12.270;2023-02-11T15:45:35;12.73;;;11.43;;
49183;SDS011;35021;49.214;12.270;2023-02-11T15:48:18;12.52;;;11.23;;
49183;SDS011;35021;49.214;12.270;2023-02-11T15:50:53;11.88;;;10.68;;
49183;SDS011;35021;49.214;12.270;2023-02-11T15:53:29;12.05;;;10.43;;
49183;SDS011;35021;49.214;12.270;2023-02-11T15:56:25;12.40;;;11.10;;
49183;SDS011;35021;49.214;12.270;2023-02-11T15:58:56;12.45;;;11.15;;
49183;SDS011;35021;49.214;12.270;2023-02-11T16:01:32;12.98;;;11.60;;
49183;SDS011;35021;49.214;12.270;2023-02-11T16:04:01;12.00;;;10.48;;
49183;SDS011;35021;49.214;12.270;2023-02-11T16:11:35;12.15;;;10.93;;
49183;SDS011;35021;49.214;12.270;2023-02-11T16:16:55;12.40;;;11.05;;
49183;SDS011;35021;49.214;12.270;2023-02-11T16:19:32;12.15;;;10.90;;
49183;SDS011;35021;49.214;12.270;2023-02-11T16:22:01;12.65;;;11.10;;
49183;SDS011;35021;49.214;12.270;2023-02-11T16:24:34;14.40;;;11.95;;
49183;SDS011;35021;49.214;12.270;2023-02-11T16:27:03;12.57;;;11.27;;
49183;SDS011;35021;49.214;12.270;2023-02-11T16:29:34;12.68;;;11.15;;
49183;SDS011;35021;49.214;12.270;2023-02-11T16:32:13;13.82;;;12.10;;
49183;SDS011;35021;49.214;12.270;2023-02-11T16:34:46;13.07;;;11.77;;
49183;SDS011;35021;49.214;12.270;2023-02-11T16:37:13;11.75;;;10.60;;
49183;SDS011;35021;49.214;12.270;2023-02-11T16:39:40;12.85;;;11.50;;
49183;SDS011;35021;49.214;12.270;2023-02-11T16:42:07;14.27;;;11.70;;
49183;SDS011;35021;49.214;12.270;2023-02-11T16:44:35;12.73;;;11.32;;
49183;SDS011;35021;49.214;12.270;2023-02-11T16:47:02;12.35;;;10.63;;
49183;SDS011;35021;49.214;12.270;2023-02-11T16:49:33;13.50;;;11.60;;
49183;SDS011;35021;49.214;12.270;2023-02-11T16:52:05;13.70;;;11.65;;
49183;SDS011;35021;49.214;12.270;2023-02-11T16:54:33;13.90;;;11.80;;
49183;SDS011;35021;49.214;12.270;2023-02-11T16:57:00;13.32;;;12.02;;
49183;SDS011;35021;49.214;12.270;2023-02-11T16:59:31;13.55;;;12.15;;
49183;SDS011;35021;49.214;12.270;2023-02-11T17:01:58;15.07;;;12.07;;
49183;SDS011;35021;49.214;12.270;2023-02-11T17:04:25;13.82;;;12.18;;
49183;SDS011;35021;49.214;12.270;2023-02-11T17:06:55;13.85;;;12.32;;
49183;SDS011;35021;49.214;12.270;2023-02-11T17:09:25;13.18;;;11.77;;
49183;SDS011;35021;49.214;12.270;2023-02-11T17:11:56;14.55;;;12.80;;
49183;SDS011;35021;49.214;12.270;2023-02-11T17:14:23;14.32;;;12.82;;
49183;SDS011;35021;49.214;12.270;2023-02-11T17:16:50;12.68;;;11.43;;
49183;SDS011;35021;49.214;12.270;2023-02-11T17:19:17;13.18;;;11.77;;
49183;SDS011;35021;49.214;12.270;2023-02-11T17:21:49;14.63;;;13.02;;
49183;SDS011;35021;49.214;12.270;2023-02-11T17:24:17;13.10;;;11.15;;